createdAt,value
2019-03-02T00:00:37.803Z,48.90
2019-03-02T00:03:07.424Z,43.63
2019-03-02T00:05:37.438Z,41.27
2019-03-02T00:11:58.404Z,42.73
2019-03-02T00:31:48.692Z,46.87
2019-03-02T00:34:18.593Z,47.67
2019-03-02T00:36:51.083Z,46.33
2019-03-02T00:39:20.144Z,44.83
2019-03-02T00:53:12.107Z,53.70
2019-03-02T00:55:42.099Z,49.67
2019-03-02T00:58:13.021Z,57.87
2019-03-02T01:00:43.989Z,50.70
2019-03-02T01:16:29.390Z,52.73
2019-03-02T01:26:20.649Z,49.43
2019-03-02T01:35:50.497Z,51.93
2019-03-02T01:53:00.217Z,45.10
2019-03-02T01:55:31.174Z,44.43
2019-03-02T02:51:16.193Z,38.20
2019-03-02T03:41:56.485Z,47.23
2019-03-02T03:44:27.759Z,39.43
2019-03-02T03:47:00.804Z,42.43
2019-03-02T03:53:14.014Z,43.37
2019-03-02T04:10:26.081Z,41.23
2019-03-02T04:12:52.907Z,44.67
2019-03-02T04:19:20.673Z,42.07
2019-03-02T04:28:51.988Z,33.23
2019-03-02T04:31:22.004Z,41.67
2019-03-02T04:33:51.947Z,40.50
2019-03-02T04:36:21.945Z,37.43
2019-03-02T04:52:38.558Z,47.40
2019-03-02T05:12:15.827Z,40.27
2019-03-02T05:14:45.763Z,41.27
2019-03-02T05:17:16.450Z,37.00
2019-03-02T05:23:31.521Z,41.33
2019-03-02T05:52:37.217Z,40.40
2019-03-02T06:02:20.279Z,49.13
2019-03-02T06:45:13.933Z,55.03
2019-03-02T06:55:03.197Z,45.37
2019-03-02T07:04:55.115Z,45.10
2019-03-02T07:14:43.122Z,40.77
2019-03-02T07:24:39.661Z,43.07
2019-03-02T07:52:02.358Z,39.37
2019-03-02T07:54:32.362Z,39.47
2019-03-02T08:11:20.973Z,30.83
2019-03-02T08:13:51.648Z,34.33
2019-03-02T08:16:21.596Z,33.83
2019-03-02T08:22:30.433Z,39.80
2019-03-02T08:32:17.695Z,24.83
2019-03-02T08:50:49.791Z,29.37
2019-03-02T08:53:19.505Z,31.43
2019-03-02T08:55:49.432Z,28.77
2019-03-02T09:02:11.008Z,22.57
2019-03-02T09:05:17.895Z,28.50
2019-03-02T09:15:30.057Z,27.33
2019-03-02T09:17:59.011Z,24.67
2019-03-02T09:20:32.469Z,25.10
2019-03-02T09:23:01.837Z,21.67
2019-03-02T09:48:56.890Z,22.10
2019-03-02T10:02:34.889Z,18.17
2019-03-02T10:05:05.393Z,20.60
2019-03-02T10:07:38.006Z,16.90
2019-03-02T10:10:08.830Z,18.90
2019-03-02T10:12:38.819Z,21.07
2019-03-02T10:15:12.804Z,19.93
2019-03-02T10:17:43.144Z,20.60
2019-03-02T10:20:13.682Z,20.57
2019-03-02T10:57:59.228Z,25.70
2019-03-02T11:00:31.103Z,25.30
2019-03-02T11:03:00.262Z,26.27
2019-03-02T11:05:47.900Z,24.40
2019-03-02T11:08:36.942Z,20.27
2019-03-02T11:11:18.359Z,24.97
2019-03-02T11:14:05.719Z,24.17
2019-03-02T11:17:01.588Z,24.47
2019-03-02T11:19:47.407Z,23.83
2019-03-02T11:22:22.905Z,33.20
2019-03-02T11:31:19.573Z,27.40
2019-03-02T11:34:07.116Z,27.30
2019-03-02T11:37:01.804Z,27.27
2019-03-02T11:53:38.692Z,21.80
2019-03-02T11:56:25.070Z,26.20
2019-03-02T11:59:10.819Z,22.63
2019-03-02T12:02:01.040Z,23.50
2019-03-02T12:04:52.189Z,22.27
2019-03-02T12:07:34.549Z,27.43
2019-03-02T12:10:13.956Z,19.50
2019-03-02T12:16:34.236Z,23.27
2019-03-02T12:19:26.258Z,21.70
2019-03-02T13:18:22.537Z,23.57
2019-03-02T13:21:16.461Z,28.77
2019-03-02T13:24:05.412Z,23.10
2019-03-02T13:41:14.417Z,22.03
2019-03-02T13:44:05.973Z,16.40
2019-03-02T13:46:42.969Z,13.63
2019-03-02T13:49:46.817Z,10.47
2019-03-02T13:52:47.438Z,13.57
2019-03-02T13:55:24.538Z,18.53
2019-03-02T13:58:06.579Z,9.63
2019-03-02T14:00:50.503Z,12.57
2019-03-02T14:03:26.834Z,11.80
2019-03-02T14:06:14.264Z,11.90
2019-03-02T14:08:54.144Z,12.33
2019-03-02T14:11:49.093Z,13.10
2019-03-02T15:30:23.097Z,18.70
2019-03-02T15:33:00.133Z,14.00
2019-03-02T15:35:49.131Z,11.50
2019-03-02T15:38:36.333Z,16.00
2019-03-02T15:41:20.382Z,13.53
2019-03-02T15:44:24.551Z,15.10
2019-03-02T15:50:37.761Z,14.13
2019-03-02T15:53:16.218Z,18.30
2019-03-02T15:56:03.394Z,13.73
2019-03-02T15:58:49.162Z,13.93
2019-03-02T16:01:44.148Z,16.70
2019-03-02T16:08:26.897Z,13.13
2019-03-02T16:18:06.295Z,16.97
2019-03-02T16:56:21.101Z,12.33
2019-03-02T16:59:04.526Z,12.37
2019-03-02T17:01:48.787Z,15.40
2019-03-02T17:04:36.660Z,15.23
2019-03-02T17:07:37.802Z,13.70
2019-03-02T17:10:28.295Z,14.17
2019-03-02T17:13:11.449Z,12.73
2019-03-02T17:16:06.140Z,12.73
2019-03-02T17:18:43.285Z,12.57
2019-03-02T17:21:37.271Z,17.00
2019-03-02T17:24:12.559Z,11.90
2019-03-02T17:26:54.126Z,11.63
2019-03-02T17:29:31.795Z,12.10
2019-03-02T17:32:22.938Z,12.20
2019-03-02T17:35:20.601Z,9.50
2019-03-02T17:38:02.109Z,9.83
2019-03-02T17:40:42.331Z,13.13
2019-03-02T17:43:23.640Z,11.27
2019-03-02T17:46:14.182Z,9.20
2019-03-02T17:49:09.626Z,15.90
2019-03-02T17:52:04.316Z,13.37
2019-03-02T17:54:56.071Z,16.73
2019-03-02T17:57:59.977Z,13.00
2019-03-02T18:00:56.968Z,11.77
2019-03-02T18:03:35.945Z,13.33
2019-03-02T18:06:24.933Z,12.90
2019-03-02T18:09:13.973Z,14.60
2019-03-02T18:12:05.619Z,16.53
2019-03-02T18:14:40.931Z,19.77
2019-03-02T18:17:20.590Z,15.03
2019-03-02T18:19:50.765Z,13.97
2019-03-02T18:22:20.842Z,14.97
2019-03-02T18:24:50.782Z,15.93
2019-03-02T18:27:20.813Z,11.37
2019-03-02T18:29:50.872Z,20.03
2019-03-02T18:32:21.146Z,11.90
2019-03-02T18:34:51.112Z,18.47
2019-03-02T18:37:21.019Z,16.27
2019-03-02T18:39:51.183Z,13.17
2019-03-02T18:42:21.253Z,13.43
2019-03-02T18:44:54.638Z,19.40
2019-03-02T18:47:25.941Z,11.07
2019-03-02T18:50:02.814Z,9.43
2019-03-02T18:52:53.796Z,12.97
2019-03-02T18:55:22.398Z,16.53
2019-03-02T18:57:53.853Z,12.23
2019-03-02T19:00:27.060Z,12.93
2019-03-02T19:02:56.973Z,12.40
2019-03-02T19:05:29.093Z,12.63
2019-03-02T19:08:01.236Z,13.60
2019-03-02T19:10:31.629Z,9.50
2019-03-02T19:13:05.053Z,8.77
2019-03-02T19:15:33.648Z,6.90
2019-03-02T19:18:03.740Z,8.00
2019-03-02T19:20:33.755Z,10.37
2019-03-02T19:23:03.667Z,7.87
2019-03-02T19:25:33.648Z,9.60
2019-03-02T19:28:03.562Z,7.10
2019-03-02T20:03:36.053Z,11.27
2019-03-02T20:06:06.268Z,11.93
2019-03-02T20:23:37.579Z,8.13
2019-03-02T20:26:07.632Z,11.80
2019-03-02T20:28:37.595Z,13.53
2019-03-02T20:31:08.321Z,8.57
2019-03-02T20:33:38.242Z,10.70
2019-03-02T20:36:08.316Z,10.50
2019-03-02T20:42:23.399Z,7.60
2019-03-02T20:44:53.411Z,12.03
2019-03-02T20:54:43.722Z,7.93
2019-03-02T20:57:13.758Z,11.87
2019-03-02T20:59:43.665Z,7.50
2019-03-02T21:02:13.611Z,14.40
2019-03-02T21:04:43.527Z,10.80
2019-03-02T21:07:13.447Z,15.53
2019-03-02T21:09:43.361Z,12.53
2019-03-02T21:12:13.715Z,10.73
2019-03-02T21:14:43.676Z,10.33
2019-03-02T21:17:13.591Z,11.00
2019-03-02T21:19:43.663Z,7.37
2019-03-02T21:22:13.594Z,14.53
2019-03-02T21:28:28.389Z,6.67
2019-03-02T21:38:36.608Z,11.23
2019-03-02T21:58:07.823Z,5.93
2019-03-02T22:00:37.813Z,5.07
2019-03-02T22:03:07.839Z,10.67
2019-03-02T22:05:38.215Z,4.20
2019-03-02T22:08:08.485Z,4.30
2019-03-02T22:10:43.919Z,4.57
2019-03-02T22:13:13.930Z,3.97
2019-03-02T22:15:43.823Z,3.90
2019-03-02T22:18:13.773Z,4.00
2019-03-02T22:20:43.791Z,3.50
2019-03-02T22:23:13.722Z,8.43
2019-03-02T22:25:43.650Z,5.30
2019-03-02T22:28:13.582Z,5.00
2019-03-02T22:30:43.494Z,4.13
2019-03-02T22:33:13.509Z,5.70
2019-03-02T22:35:43.434Z,4.00
2019-03-02T22:38:13.363Z,4.33
2019-03-02T22:40:43.314Z,3.73
2019-03-02T22:43:13.321Z,3.57
2019-03-02T22:45:43.254Z,4.97
2019-03-02T22:48:13.393Z,4.00
2019-03-02T22:50:43.345Z,5.60
2019-03-02T22:53:13.263Z,4.07
2019-03-02T22:55:43.174Z,3.03
2019-03-02T22:58:13.114Z,10.27
2019-03-02T23:01:29.787Z,6.37
2019-03-02T23:03:59.740Z,5.17
2019-03-02T23:06:29.646Z,6.30
2019-03-02T23:08:59.637Z,4.13
2019-03-02T23:11:29.621Z,5.23
2019-03-02T23:13:59.547Z,3.30
2019-03-02T23:16:29.540Z,6.67
2019-03-02T23:18:59.456Z,6.70
2019-03-02T23:21:29.367Z,7.23
2019-03-02T23:23:59.276Z,4.57
2019-03-02T23:26:29.184Z,3.80
2019-03-02T23:28:59.101Z,3.90
2019-03-02T23:31:29.076Z,4.93
2019-03-02T23:33:58.992Z,6.50
2019-03-02T23:36:28.898Z,3.73
2019-03-02T23:38:58.835Z,5.20
2019-03-02T23:41:28.827Z,3.80
2019-03-02T23:43:58.999Z,3.60
2019-03-02T23:46:29.017Z,5.20
2019-03-02T23:48:58.935Z,4.50
2019-03-02T23:51:28.912Z,6.50
2019-03-02T23:53:58.921Z,4.00
2019-03-02T23:56:28.906Z,2.87
2019-03-02T23:58:58.833Z,4.37
